De Soto, Georgia
Current Conditions -  °F | °C
As of 7:35 PM on Saturday 20 Dec 2014 (Local Time) from KACJ Reporting Station
Overcast Overcast  
Wind Chill: 52°   Ceiling: 1100
Heat Index: 52°   Visibility: 7mi
Dew Point: 52°   Wind: 6mph
Humidity: 100%   Direction: 50°NE
Pressure: 30.18"   Gusts: NA
Location:  31.95°N, 84.06°W
Report Text: KACJ 210035Z AUTO 05005KT 7SM OVC011 11/11 A3018 RMK AO2
Loading
Personal Weather Stations






























Interactive Weather Map New forecast layout! Learn more

10-Day Weather Forecast

Advertisements
Track Severe Weather on mobile